Time;durP1;ratioP1;P1;durP2;ratioP2;P2;SDS_P1;SDS_P2;PMS_P1;PMS_P2;Temp;Humidity;BMP_temperature;BMP_pressure;BME280_temperature;BME280_humidity;BME280_pressure;Samples;Min_cycle;Max_cycle;Signal;HPM_P1;HPM_P2
2022/02/21 00:00:55;;;;;;;8.07;1.67;;;;;;;2.80;71.00;98577.91;4909955;29;20044;-50
2022/02/21 00:03:22;;;;;;;5.93;2.45;;;;;;;2.74;71.48;98583.00;4909498;29;20040;-48
2022/02/21 00:05:49;;;;;;;15.70;2.63;;;;;;;2.67;71.25;98606.81;4911587;29;20056;-45
2022/02/21 00:08:17;;;;;;;7.10;1.80;;;;;;;2.59;72.62;98609.31;4910560;29;20060;-50
2022/02/21 00:10:43;;;;;;;7.88;2.83;;;;;;;2.49;73.44;98608.41;4912262;29;20048;-49
2022/02/21 00:13:11;;;;;;;9.27;3.17;;;;;;;2.50;72.29;98615.22;4909606;29;20103;-48
2022/02/21 00:15:38;;;;;;;5.03;1.90;;;;;;;2.46;73.27;98621.16;4908957;29;20052;-51
2022/02/21 00:18:06;;;;;;;3.95;1.05;;;;;;;2.40;72.94;98606.63;4909195;29;20440;-51
2022/02/21 00:20:33;;;;;;;3.65;2.25;;;;;;;2.36;73.45;98615.13;4909642;29;20251;-48
2022/02/21 00:22:59;;;;;;;5.88;1.98;;;;;;;2.31;73.22;98610.00;4907772;29;20056;-46
2022/02/21 00:25:26;;;;;;;4.63;1.95;;;;;;;2.27;73.31;98612.50;4909304;29;20056;-53
2022/02/21 00:27:53;;;;;;;4.90;2.08;;;;;;;2.21;72.88;98595.44;4911066;29;20600;-49
2022/02/21 00:30:19;;;;;;;5.63;2.30;;;;;;;2.18;74.01;98608.19;4911955;29;20051;-47
2022/02/21 00:32:46;;;;;;;1.60;0.57;;;;;;;2.16;73.23;98609.88;4909513;29;20095;-52
2022/02/21 00:35:12;;;;;;;3.38;1.23;;;;;;;2.14;73.54;98611.56;4909963;29;20060;-48
2022/02/21 00:37:39;;;;;;;3.90;1.80;;;;;;;2.12;74.14;98614.09;4909136;29;20044;-45
2022/02/21 00:40:06;;;;;;;8.05;2.97;;;;;;;2.10;73.21;98610.69;4912026;29;20056;-49
2022/02/21 00:42:33;;;;;;;4.65;2.92;;;;;;;2.10;73.84;98617.47;4911090;29;20051;-50
2022/02/21 00:45:00;;;;;;;3.90;1.65;;;;;;;2.08;73.26;98616.59;4908700;29;20059;-47
2022/02/21 00:47:28;;;;;;;5.95;1.92;;;;;;;2.09;72.80;98615.78;4911746;29;20457;-45
2022/02/21 00:49:55;;;;;;;2.92;1.48;;;;;;;2.07;72.45;98615.75;4906620;29;20060;-50
2022/02/21 00:52:23;;;;;;;5.18;2.00;;;;;;;2.08;72.55;98608.94;4908466;29;20055;-49
2022/02/21 00:54:49;;;;;;;2.78;1.77;;;;;;;2.09;72.32;98606.41;4904536;29;20075;-49
2022/02/21 00:57:16;;;;;;;6.82;1.92;;;;;;;2.09;73.48;98608.13;4905063;29;20044;-47
2022/02/21 00:59:44;;;;;;;4.90;1.35;;;;;;;2.10;72.83;98604.72;4906658;29;20167;-45
2022/02/21 01:02:11;;;;;;;3.50;1.90;;;;;;;2.07;72.88;98604.69;4906148;29;20052;-50
2022/02/21 01:04:38;;;;;;;4.72;1.88;;;;;;;2.06;71.78;98614.03;4907090;29;20055;-48
2022/02/21 01:07:05;;;;;;;6.65;1.70;;;;;;;2.07;72.82;98620.00;4907680;29;20052;-47
2022/02/21 01:09:32;;;;;;;4.47;0.60;;;;;;;2.05;72.32;98628.53;4906914;29;20420;-49
2022/02/21 01:11:58;;;;;;;6.18;1.95;;;;;;;2.07;72.66;98620.00;4909862;29;20107;-48
2022/02/21 01:14:25;;;;;;;2.70;1.85;;;;;;;2.06;73.07;98624.25;4909911;29;20048;-48
2022/02/21 01:16:51;;;;;;;4.63;1.63;;;;;;;2.07;71.90;98625.13;4907112;29;20442;-52
2022/02/21 01:19:18;;;;;;;3.83;0.60;;;;;;;2.07;71.76;98609.78;4907949;29;20445;-50
2022/02/21 01:21:44;;;;;;;5.93;1.45;;;;;;;2.08;71.65;98596.16;4906874;29;20044;-48
2022/02/21 01:24:11;;;;;;;3.67;2.10;;;;;;;2.10;72.43;98591.94;4905657;29;20674;-48
2022/02/21 01:26:38;;;;;;;8.77;2.08;;;;;;;2.11;71.68;98594.50;4902879;29;20088;-48
2022/02/21 01:29:04;;;;;;;4.72;1.83;;;;;;;2.14;70.84;98573.25;4909296;29;20477;-50
2022/02/21 01:31:31;;;;;;;3.70;1.40;;;;;;;2.17;71.17;98565.59;4908478;29;20100;-52
2022/02/21 01:33:57;;;;;;;3.28;1.58;;;;;;;2.17;71.30;98570.72;4904685;29;20667;-45
2022/02/21 01:36:25;;;;;;;6.60;1.92;;;;;;;2.18;71.30;98562.19;4906917;29;20059;-49
2022/02/21 01:38:52;;;;;;;6.93;1.85;;;;;;;2.18;70.63;98567.31;4903610;29;20056;-48
2022/02/21 01:41:18;;;;;;;6.63;1.73;;;;;;;2.17;71.02;98560.50;4906828;29;20052;-45
2022/02/21 01:43:47;;;;;;;7.57;2.22;;;;;;;2.16;69.80;98561.34;4907551;29;20580;-50
2022/02/21 01:46:15;;;;;;;5.07;0.75;;;;;;;2.17;70.91;98563.06;4905224;29;20404;-49
2022/02/21 01:48:42;;;;;;;2.47;1.48;;;;;;;2.15;70.04;98572.38;4904291;29;20536;-45
2022/02/21 01:51:09;;;;;;;6.43;1.58;;;;;;;2.11;70.40;98570.66;4907142;29;20111;-48
2022/02/21 01:53:36;;;;;;;4.78;1.08;;;;;;;2.13;70.72;98579.19;4904859;29;20056;-43
2022/02/21 01:56:03;;;;;;;3.95;1.77;;;;;;;2.10;70.14;98594.50;4909951;29;20056;-46
2022/02/21 01:58:30;;;;;;;2.95;1.58;;;;;;;2.07;70.45;98574.03;4904955;29;20072;-48
2022/02/21 02:00:57;;;;;;;6.80;1.45;;;;;;;2.09;70.47;98587.69;4906881;29;20108;-46
2022/02/21 02:03:24;;;;;;;3.55;1.65;;;;;;;2.09;69.62;98597.91;4906127;29;20056;-48
2022/02/21 02:05:50;;;;;;;5.97;1.75;;;;;;;2.08;69.45;98591.06;4908483;29;20056;-48
2022/02/21 02:08:17;;;;;;;2.78;1.45;;;;;;;2.13;69.14;98574.09;4908752;29;20053;-47
2022/02/21 02:10:44;;;;;;;2.83;1.73;;;;;;;2.14;69.33;98592.00;4903053;29;20048;-46
2022/02/21 02:13:10;;;;;;;7.15;1.75;;;;;;;2.13;69.21;98595.38;4902304;29;20561;-43
2022/02/21 02:15:37;;;;;;;2.90;1.52;;;;;;;2.13;68.39;98605.56;4898101;29;20088;-46
2022/02/21 02:18:03;;;;;;;1.98;1.17;;;;;;;2.15;70.43;98618.38;4900930;29;20100;-48
2022/02/21 02:20:30;;;;;;;6.35;2.63;;;;;;;2.16;69.40;98620.09;4899656;29;20516;-46
2022/02/21 02:22:57;;;;;;;5.70;1.90;;;;;;;2.16;70.14;98612.44;4901645;29;20060;-47
2022/02/21 02:25:23;;;;;;;6.43;1.88;;;;;;;2.16;70.15;98592.00;4901890;29;20049;-45
2022/02/21 02:27:50;;;;;;;5.05;2.08;;;;;;;2.17;68.88;98586.88;4900918;29;20095;-48
2022/02/21 02:30:20;;;;;;;2.72;1.30;;;;;;;2.18;70.24;98608.19;4904204;29;20048;-47
2022/02/21 02:32:49;;;;;;;6.85;1.40;;;;;;;2.16;69.34;98594.56;4907198;29;20492;-46
2022/02/21 02:35:22;;;;;;;4.22;1.58;;;;;;;2.16;69.88;98586.88;4908327;29;20044;-50
2022/02/21 02:37:49;;;;;;;2.10;1.27;;;;;;;2.17;69.65;98573.28;4911365;29;20752;-46
2022/02/21 02:40:16;;;;;;;7.72;1.77;;;;;;;2.18;69.02;98591.16;4908718;29;20063;-45
2022/02/21 02:42:42;;;;;;;11.57;1.95;;;;;;;2.17;69.57;98580.94;4906691;29;20048;-45
2022/02/21 02:45:09;;;;;;;7.32;1.67;;;;;;;2.16;68.98;98582.63;4908050;29;20575;-49
2022/02/21 02:47:36;;;;;;;9.98;1.98;;;;;;;2.18;69.52;98582.63;4910100;29;20132;-49
2022/02/21 02:50:04;;;;;;;9.60;1.05;;;;;;;2.17;69.39;98565.59;4909864;29;20059;-45
2022/02/21 02:52:31;;;;;;;9.48;2.47;;;;;;;2.17;69.31;98568.16;4911157;29;20048;-52
2022/02/21 02:54:57;;;;;;;3.78;1.98;;;;;;;2.21;68.84;98559.66;4910361;29;20084;-44
2022/02/21 02:57:24;;;;;;;5.28;1.17;;;;;;;2.19;67.78;98543.47;4910390;29;20408;-50
2022/02/21 02:59:51;;;;;;;5.82;1.67;;;;;;;2.20;67.82;98545.19;4906812;29;20052;-51
2022/02/21 03:02:17;;;;;;;4.13;1.65;;;;;;;2.21;68.85;98552.00;4909796;29;20048;-48
2022/02/21 03:04:44;;;;;;;6.60;2.15;;;;;;;2.20;67.58;98544.34;4910403;29;20048;-47
2022/02/21 03:07:11;;;;;;;7.28;1.75;;;;;;;2.19;68.32;98543.47;4910380;29;20064;-48
2022/02/21 03:09:37;;;;;;;3.80;1.20;;;;;;;2.22;69.11;98543.50;4911557;29;20048;-45
2022/02/21 03:12:04;;;;;;;4.50;1.38;;;;;;;2.21;68.49;98534.13;4909842;29;20052;-49
2022/02/21 03:14:31;;;;;;;3.33;1.80;;;;;;;2.20;68.32;98534.09;4907639;29;20084;-52
2022/02/21 03:16:57;;;;;;;6.75;1.92;;;;;;;2.22;68.29;98540.94;4908701;29;20194;-47
2022/02/21 03:19:25;;;;;;;8.88;0.90;;;;;;;2.22;68.04;98535.81;4910616;29;20052;-46
2022/02/21 03:21:53;;;;;;;5.35;1.75;;;;;;;2.30;67.67;98526.50;4907158;29;20064;-47
2022/02/21 03:24:19;;;;;;;3.88;2.05;;;;;;;2.33;69.02;98520.56;4909680;29;20048;-50
2022/02/21 03:26:46;;;;;;;11.27;2.05;;;;;;;2.34;67.91;98531.63;4908525;29;20052;-49
2022/02/21 03:29:13;;;;;;;4.40;0.90;;;;;;;2.34;69.13;98526.53;4905600;29;20409;-45
2022/02/21 03:31:39;;;;;;;4.15;0.50;;;;;;;2.35;67.64;98518.00;4908349;29;20071;-47
2022/02/21 03:34:06;;;;;;;8.02;2.83;;;;;;;2.35;68.45;98513.75;4906017;29;24076;-49
2022/02/21 03:36:32;;;;;;;8.60;0.73;;;;;;;2.41;68.01;98513.81;4906911;29;20400;-49
2022/02/21 03:38:59;;;;;;;11.65;3.88;;;;;;;2.40;67.05;98506.13;4909446;29;20056;-46
2022/02/21 03:41:27;;;;;;;3.28;1.70;;;;;;;2.45;67.29;98509.56;4906187;29;20060;-51
2022/02/21 03:43:53;;;;;;;9.00;2.22;;;;;;;2.48;68.36;98504.47;4909774;29;20052;-51
2022/02/21 03:46:25;;;;;;;8.27;1.75;;;;;;;2.51;67.85;98519.84;4908274;29;20512;-48
2022/02/21 03:48:52;;;;;;;10.27;2.58;;;;;;;2.53;67.54;98497.66;4910865;29;20833;-47
2022/02/21 03:51:19;;;;;;;9.75;1.77;;;;;;;2.56;66.98;98495.13;4909761;29;20472;-48
2022/02/21 03:53:45;;;;;;;3.92;2.05;;;;;;;2.61;67.65;98507.09;4910627;29;20048;-50
2022/02/21 03:56:12;;;;;;;6.15;1.25;;;;;;;2.65;67.20;98485.78;4906824;29;20632;-47
2022/02/21 03:58:41;;;;;;;7.53;1.50;;;;;;;2.66;67.15;98492.59;4908058;29;20110;-46
2022/02/21 04:01:08;;;;;;;5.35;1.77;;;;;;;2.67;68.03;98487.50;4907605;29;20112;-45
2022/02/21 04:03:34;;;;;;;9.77;2.25;;;;;;;2.69;68.56;98477.28;4911325;29;20552;-46
2022/02/21 04:06:01;;;;;;;7.82;1.90;;;;;;;2.77;68.07;98482.44;4908482;29;20088;-51
2022/02/21 04:08:27;;;;;;;8.43;2.33;;;;;;;2.78;68.16;98476.47;4909608;29;20130;-45
2022/02/21 04:10:54;;;;;;;9.82;2.60;;;;;;;2.81;68.78;98477.31;4910054;29;20164;-49
2022/02/21 04:13:20;;;;;;;3.17;1.75;;;;;;;2.83;68.26;98485.88;4905544;29;20056;-44
2022/02/21 04:15:47;;;;;;;9.18;2.22;;;;;;;2.86;68.75;98467.13;4906961;29;20119;-45
2022/02/21 04:18:13;;;;;;;5.15;1.85;;;;;;;2.90;68.12;98470.56;4909158;29;20095;-48
2022/02/21 04:20:40;;;;;;;8.48;2.53;;;;;;;2.96;68.14;98462.88;4907181;29;20560;-48
2022/02/21 04:23:07;;;;;;;6.20;2.03;;;;;;;3.00;68.21;98462.03;4905139;29;20120;-50
2022/02/21 04:25:33;;;;;;;8.32;2.20;;;;;;;3.03;67.75;98456.94;4907600;29;20564;-44
2022/02/21 04:28:00;;;;;;;7.70;2.08;;;;;;;3.06;67.62;98472.28;4910834;29;20485;-55
2022/02/21 04:30:28;;;;;;;5.25;1.83;;;;;;;3.11;68.23;98453.53;4908044;29;20096;-50
2022/02/21 04:32:56;;;;;;;6.45;1.65;;;;;;;3.12;68.96;98460.34;4904797;29;20053;-46
2022/02/21 04:35:25;;;;;;;8.05;2.25;;;;;;;3.13;68.52;98452.69;4908671;29;20051;-46
2022/02/21 04:37:51;;;;;;;10.95;2.25;;;;;;;3.13;68.50;98462.91;4907879;29;20060;-46
2022/02/21 04:40:21;;;;;;;11.68;1.75;;;;;;;3.16;69.03;98462.94;4907171;29;23155;-46
2022/02/21 04:42:50;;;;;;;7.22;2.47;;;;;;;3.16;68.96;98467.19;4906528;29;20052;-45
2022/02/21 04:45:16;;;;;;;14.27;2.60;;;;;;;3.21;69.06;98483.41;4908222;29;20100;-46
2022/02/21 04:47:43;;;;;;;7.45;2.50;;;;;;;3.22;68.79;98467.22;4906595;29;20091;-45
2022/02/21 04:50:10;;;;;;;5.32;1.67;;;;;;;3.22;68.37;98459.53;4908165;29;20053;-47
2022/02/21 04:52:37;;;;;;;6.80;0.93;;;;;;;3.24;68.57;98428.84;4906041;29;20446;-49
2022/02/21 04:55:05;;;;;;;4.93;2.22;;;;;;;3.24;69.40;98437.34;4911296;29;20048;-52
2022/02/21 04:57:32;;;;;;;9.20;1.67;;;;;;;3.25;69.94;98431.41;4909588;29;20052;-46
2022/02/21 04:59:58;;;;;;;4.68;2.17;;;;;;;3.27;69.70;98434.78;4905768;29;20056;-45
2022/02/21 05:02:25;;;;;;;7.28;0.93;;;;;;;3.29;69.05;98427.13;4903531;29;20453;-48
2022/02/21 05:04:52;;;;;;;5.72;0.65;;;;;;;3.29;70.24;98407.50;4908018;29;20478;-47
2022/02/21 05:07:19;;;;;;;5.10;2.00;;;;;;;3.30;70.22;98409.22;4906376;29;20052;-49
2022/02/21 05:09:45;;;;;;;6.53;0.60;;;;;;;3.32;70.51;98394.69;4905807;29;20214;-46
2022/02/21 05:12:12;;;;;;;6.90;1.70;;;;;;;3.34;69.80;98405.78;4907167;29;20052;-48
2022/02/21 05:14:38;;;;;;;10.18;0.90;;;;;;;3.36;69.70;98384.47;4906737;29;20115;-44
2022/02/21 05:17:05;;;;;;;7.90;2.13;;;;;;;3.34;70.49;98382.75;4907864;29;20052;-47
2022/02/21 05:19:32;;;;;;;12.27;2.42;;;;;;;3.40;70.20;98365.69;4907798;29;20044;-53
2022/02/21 05:21:59;;;;;;;9.65;1.83;;;;;;;3.42;69.46;98367.41;4908524;29;20047;-50
2022/02/21 05:24:26;;;;;;;6.13;2.45;;;;;;;3.43;69.85;98358.00;4902550;29;20509;-48
2022/02/21 05:26:54;;;;;;;15.80;2.78;;;;;;;3.44;69.77;98375.06;4906671;29;20738;-51
2022/02/21 05:29:20;;;;;;;2.80;1.85;;;;;;;3.45;70.53;98381.91;4904962;29;20044;-46
2022/02/21 05:31:47;;;;;;;4.80;1.23;;;;;;;3.48;70.53;98387.03;4905012;29;20108;-47
2022/02/21 05:34:14;;;;;;;7.30;1.45;;;;;;;3.53;69.82;98377.63;4907229;29;20448;-48
2022/02/21 05:36:41;;;;;;;6.35;2.28;;;;;;;3.55;70.62;98383.59;4906320;29;20056;-45
2022/02/21 05:39:07;;;;;;;7.57;1.77;;;;;;;3.59;70.77;98385.28;4906783;29;20056;-48
2022/02/21 05:41:34;;;;;;;6.20;1.63;;;;;;;3.63;70.50;98383.59;4911370;29;20051;-48
2022/02/21 05:44:01;;;;;;;10.93;2.17;;;;;;;3.72;69.73;98390.41;4907705;29;20056;-48
2022/02/21 05:46:28;;;;;;;7.53;1.75;;;;;;;3.76;69.14;98384.44;4906673;29;20071;-47
2022/02/21 05:48:54;;;;;;;4.80;0.63;;;;;;;3.80;69.37;98392.94;4905882;29;20072;-44
2022/02/21 05:51:21;;;;;;;5.43;0.60;;;;;;;3.82;69.80;98386.97;4907886;29;20055;-49
2022/02/21 05:53:49;;;;;;;10.00;2.78;;;;;;;3.89;69.62;98387.81;4908722;29;20780;-47
2022/02/21 05:56:16;;;;;;;12.90;2.05;;;;;;;3.93;69.69;98391.22;4906014;29;20064;-45
2022/02/21 05:58:42;;;;;;;16.23;3.25;;;;;;;3.98;69.50;98389.47;4907270;29;20120;-45
2022/02/21 06:01:09;;;;;;;7.97;2.50;;;;;;;4.02;68.92;98398.88;4906711;29;20103;-48
2022/02/21 06:03:41;;;;;;;10.15;2.20;;;;;;;4.06;69.37;98400.56;4908113;29;20066;-49
2022/02/21 06:06:08;;;;;;;14.32;2.72;;;;;;;4.09;68.98;98400.56;4904177;29;20110;-50
2022/02/21 06:08:34;;;;;;;14.65;1.90;;;;;;;4.15;69.07;98403.97;4906680;29;20056;-47
2022/02/21 06:11:01;;;;;;;6.55;1.63;;;;;;;4.21;68.49;98409.06;4906565;29;20103;-48
2022/02/21 06:13:27;;;;;;;6.90;0.85;;;;;;;4.28;67.75;98405.63;4906884;29;20056;-47
2022/02/21 06:15:54;;;;;;;5.30;0.98;;;;;;;4.30;68.49;98424.44;4907872;29;20044;-50
2022/02/21 06:18:21;;;;;;;10.20;1.67;;;;;;;4.32;68.62;98417.56;4905145;29;20061;-46
2022/02/21 06:20:47;;;;;;;10.18;2.03;;;;;;;4.39;68.19;98418.41;4909345;29;20657;-50
2022/02/21 06:23:14;;;;;;;11.57;2.10;;;;;;;4.41;68.14;98403.00;4906776;29;20096;-48
2022/02/21 06:25:42;;;;;;;11.88;1.98;;;;;;;4.44;68.47;98403.00;4906946;29;20115;-48
2022/02/21 06:28:09;;;;;;;10.38;0.90;;;;;;;4.48;68.45;98391.88;4905936;29;20048;-53
2022/02/21 06:30:37;;;;;;;9.77;2.03;;;;;;;4.49;68.75;98396.13;4905421;29;20056;-49
2022/02/21 06:33:04;;;;;;;10.43;2.45;;;;;;;4.53;68.15;98394.41;4907314;29;20055;-49
2022/02/21 06:35:31;;;;;;;8.95;2.25;;;;;;;4.56;68.22;98379.84;4905726;29;20108;-48
2022/02/21 06:37:59;;;;;;;8.48;2.22;;;;;;;4.59;68.46;98384.16;4906339;29;20052;-50
2022/02/21 06:40:28;;;;;;;5.57;1.77;;;;;;;4.59;68.53;98379.84;4886865;29;20076;-46
2022/02/21 06:42:55;;;;;;;8.25;2.22;;;;;;;4.63;68.10;98385.84;4899628;29;20044;-46
2022/02/21 06:45:23;;;;;;;6.80;2.28;;;;;;;4.67;68.37;98376.41;4905487;29;20064;-49
2022/02/21 06:47:51;;;;;;;6.60;2.83;;;;;;;4.65;68.47;98389.22;4905086;29;20152;-47
2022/02/21 06:50:20;;;;;;;6.70;1.08;;;;;;;4.68;68.90;98384.09;4907060;29;20056;-50
2022/02/21 06:52:47;;;;;;;9.55;2.08;;;;;;;4.71;68.52;98412.28;4903521;29;20059;-49
2022/02/21 06:55:15;;;;;;;7.90;2.33;;;;;;;4.74;68.81;98404.59;4906286;29;20519;-46
2022/02/21 06:57:44;;;;;;;8.48;1.13;;;;;;;4.74;68.64;98403.72;4906696;29;20461;-43
2022/02/21 07:00:11;;;;;;;2.58;1.67;;;;;;;4.77;69.08;98403.72;4907190;29;20055;-45
2022/02/21 07:02:38;;;;;;;8.68;0.73;;;;;;;4.78;68.38;98413.09;4909555;29;20115;-46
2022/02/21 07:05:06;;;;;;;9.13;1.67;;;;;;;4.79;69.26;98385.75;4906830;29;20079;-47
2022/02/21 07:07:33;;;;;;;7.00;2.35;;;;;;;4.80;69.01;98393.41;4907775;29;20052;-46
2022/02/21 07:10:01;;;;;;;9.57;2.42;;;;;;;4.83;68.70;98392.56;4907093;29;20052;-47
2022/02/21 07:12:27;;;;;;;10.57;1.52;;;;;;;4.87;69.23;98395.06;4909091;29;20484;-47
2022/02/21 07:14:54;;;;;;;7.32;1.10;;;;;;;4.86;69.75;98403.63;4908655;29;20123;-46
2022/02/21 07:17:23;;;;;;;9.10;2.42;;;;;;;4.87;69.48;98395.06;4909291;29;20119;-45
2022/02/21 07:19:50;;;;;;;6.78;1.80;;;;;;;4.88;69.69;98417.31;4915793;29;20197;-44
2022/02/21 07:22:17;;;;;;;6.45;3.13;;;;;;;4.93;69.94;98413.88;4905268;29;20067;-45
2022/02/21 07:24:44;;;;;;;11.32;2.83;;;;;;;4.97;69.75;98410.44;4907370;29;20107;-45
2022/02/21 07:27:10;;;;;;;12.30;2.45;;;;;;;4.98;69.97;98419.81;4912756;29;20048;-47
2022/02/21 07:29:37;;;;;;;16.67;4.60;;;;;;;4.99;69.60;98434.34;4910882;29;20111;-46
2022/02/21 07:32:06;;;;;;;13.88;3.63;;;;;;;4.98;70.56;98422.38;4910989;29;20052;-47
2022/02/21 07:34:33;;;;;;;7.53;2.72;;;;;;;4.99;69.75;98431.78;4908684;29;20060;-52
2022/02/21 07:37:00;;;;;;;5.80;0.60;;;;;;;5.04;69.42;98417.22;4906802;29;20127;-51
2022/02/21 07:39:30;;;;;;;9.55;2.42;;;;;;;5.04;69.49;98432.63;4900856;29;20044;-47
2022/02/21 07:41:58;;;;;;;8.65;2.63;;;;;;;5.06;70.35;98425.75;4913811;29;20070;-45
2022/02/21 07:44:24;;;;;;;9.45;1.98;;;;;;;5.08;70.05;98454.84;4904006;29;20500;-46
2022/02/21 07:46:52;;;;;;;8.10;2.78;;;;;;;5.12;70.45;98446.25;4910950;29;20515;-47
2022/02/21 07:49:20;;;;;;;6.50;2.53;;;;;;;5.12;71.98;98455.66;4907575;29;20096;-45
2022/02/21 07:51:47;;;;;;;9.00;2.67;;;;;;;5.12;70.73;98440.25;4905841;29;20559;-48
2022/02/21 07:54:13;;;;;;;13.25;1.27;;;;;;;5.13;70.99;98450.53;4909894;29;21726;-48
2022/02/21 07:57:01;;;;;;;5.32;0.50;;;;;;;5.16;70.97;98462.47;4904768;29;20066;-50
2022/02/21 07:59:28;;;;;;;8.05;2.00;;;;;;;5.21;70.76;98454.75;4908733;29;20051;-50
2022/02/21 08:01:54;;;;;;;12.65;2.17;;;;;;;5.27;71.56;98455.56;4905552;29;20056;-48
2022/02/21 08:04:24;;;;;;;2.60;0.98;;;;;;;5.27;72.24;98470.13;4908171;29;20067;-49
2022/02/21 08:06:51;;;;;;;9.00;2.60;;;;;;;5.28;72.56;98453.84;4905123;29;20100;-50
2022/02/21 08:09:20;;;;;;;6.65;1.60;;;;;;;5.33;72.48;98485.47;4912397;29;20055;-51
2022/02/21 08:11:47;;;;;;;2.95;1.63;;;;;;;5.32;72.34;98478.66;4909436;29;20084;-51
2022/02/21 08:14:14;;;;;;;6.22;2.33;;;;;;;5.35;72.45;98486.34;4907954;29;20045;-46
2022/02/21 08:16:40;;;;;;;4.13;1.95;;;;;;;5.37;73.40;98487.16;4910234;29;20096;-47
2022/02/21 08:19:07;;;;;;;8.07;2.13;;;;;;;5.39;72.23;98498.28;4910814;29;20929;-51
2022/02/21 08:21:34;;;;;;;5.85;1.25;;;;;;;5.42;73.01;98504.25;4906472;29;20448;-47
2022/02/21 08:24:00;;;;;;;4.18;0.68;;;;;;;5.45;72.60;98504.22;4905536;29;20059;-46
2022/02/21 08:26:29;;;;;;;6.13;2.30;;;;;;;5.52;72.53;98516.16;4905160;29;20051;-52
2022/02/21 08:28:55;;;;;;;7.35;0.88;;;;;;;5.55;73.25;98521.28;4906931;29;20071;-50
2022/02/21 08:31:24;;;;;;;6.10;0.70;;;;;;;5.59;73.33;98520.41;4907577;29;20071;-49
2022/02/21 08:33:50;;;;;;;7.72;1.05;;;;;;;5.62;73.14;98530.66;4906555;29;20048;-47
2022/02/21 08:36:17;;;;;;;3.95;0.80;;;;;;;5.59;73.02;98538.38;4903874;29;21785;-48
2022/02/21 08:38:44;;;;;;;7.60;1.35;;;;;;;5.60;72.89;98555.50;4908562;29;20147;-52
2022/02/21 08:41:10;;;;;;;4.07;1.92;;;;;;;5.64;73.03;98557.19;4908838;29;20116;-47
2022/02/21 08:43:37;;;;;;;8.80;2.40;;;;;;;5.70;73.90;98568.25;4909955;29;20060;-53
2022/02/21 08:46:03;;;;;;;6.10;0.70;;;;;;;5.74;73.59;98577.69;4906337;29;20056;-47
2022/02/21 08:48:51;;;;;;;3.63;0.60;;;;;;;5.75;74.38;98594.78;4907191;29;20056;-51
2022/02/21 08:51:17;;;;;;;4.07;2.15;;;;;;;5.79;73.03;98586.22;4907353;29;20089;-53
2022/02/21 08:53:44;;;;;;;3.67;1.88;;;;;;;5.85;73.06;98593.88;4907736;29;20107;-49
2022/02/21 08:56:10;;;;;;;5.18;0.65;;;;;;;5.89;73.75;98610.97;4905628;29;20060;-52
2022/02/21 08:58:37;;;;;;;9.40;2.53;;;;;;;5.96;74.24;98595.50;4901904;29;20055;-48
2022/02/21 09:01:04;;;;;;;7.25;0.90;;;;;;;6.02;73.89;98600.63;4907053;29;20096;-48
2022/02/21 09:03:31;;;;;;;6.97;0.82;;;;;;;6.11;73.93;98623.69;4901934;29;20059;-51
2022/02/21 09:05:57;;;;;;;5.00;1.13;;;;;;;6.22;73.67;98630.47;4898812;29;20623;-48
2022/02/21 09:08:25;;;;;;;11.45;2.88;;;;;;;6.29;73.17;98632.16;4907438;29;20056;-53
2022/02/21 09:10:52;;;;;;;5.80;1.75;;;;;;;6.31;71.77;98666.41;4908018;29;20092;-51
2022/02/21 09:13:19;;;;;;;5.32;0.65;;;;;;;6.31;72.00;98666.41;4906141;29;20056;-52
2022/02/21 09:15:45;;;;;;;3.90;0.82;;;;;;;6.32;72.00;98698.13;4904524;29;20052;-48
2022/02/21 09:18:12;;;;;;;7.35;1.05;;;;;;;6.34;72.34;98707.53;4902895;29;20404;-47
2022/02/21 09:20:39;;;;;;;5.13;0.98;;;;;;;6.36;73.13;98712.66;4909522;29;20048;-47
2022/02/21 09:23:06;;;;;;;3.08;1.00;;;;;;;6.36;73.07;98713.53;4909430;29;20060;-51
2022/02/21 09:25:38;;;;;;;3.83;0.70;;;;;;;6.34;73.39;98738.38;4907410;29;20060;-48
2022/02/21 09:28:05;;;;;;;4.13;0.98;;;;;;;6.33;73.38;98730.69;4904356;29;20056;-47
2022/02/21 09:30:31;;;;;;;7.85;1.08;;;;;;;6.36;72.61;98736.69;4905146;29;20093;-50
2022/02/21 09:32:58;;;;;;;8.68;2.22;;;;;;;6.37;74.26;98751.22;4907984;29;20048;-50
2022/02/21 09:35:25;;;;;;;2.30;0.80;;;;;;;6.34;75.87;98758.97;4909973;29;20052;-52
2022/02/21 09:37:52;;;;;;;3.63;1.63;;;;;;;6.33;75.44;98782.97;4910325;29;20051;-46
2022/02/21 09:40:20;;;;;;;6.63;0.90;;;;;;;6.30;74.53;98793.28;4907181;29;20048;-51
2022/02/21 09:42:48;;;;;;;5.38;0.82;;;;;;;6.27;74.31;98773.59;4902334;29;20047;-51
2022/02/21 09:45:18;;;;;;;7.82;2.25;;;;;;;6.32;74.61;98801.84;4907002;29;20055;-49
2022/02/21 09:47:45;;;;;;;8.15;1.42;;;;;;;6.35;74.52;98822.38;4904777;29;20116;-46
2022/02/21 09:50:32;;;;;;;5.03;0.93;;;;;;;6.35;73.92;98814.66;4908204;29;20044;-48
2022/02/21 09:53:01;;;;;;;4.07;0.80;;;;;;;6.33;74.95;98844.69;4909194;29;20059;-52
2022/02/21 09:55:29;;;;;;;5.95;1.05;;;;;;;6.34;74.75;98845.53;4908036;29;20083;-47
2022/02/21 09:57:55;;;;;;;5.70;2.03;;;;;;;6.38;75.95;98858.38;4910005;29;20467;-49
2022/02/21 10:00:23;;;;;;;3.92;3.28;;;;;;;6.42;76.27;98849.78;4902147;29;20778;-55
2022/02/21 10:02:50;;;;;;;11.88;1.10;;;;;;;6.49;75.07;98860.06;4905881;29;20052;-48
2022/02/21 10:05:28;;;;;;;3.70;0.73;;;;;;;6.43;75.75;98876.38;4903277;29;20117;-53
2022/02/21 10:07:56;;;;;;;3.65;0.73;;;;;;;6.43;75.47;98872.06;4904772;29;20563;-51
2022/02/21 10:10:25;;;;;;;7.95;1.35;;;;;;;6.42;76.58;98875.50;4906717;29;20056;-49
2022/02/21 10:12:57;;;;;;;9.38;1.55;;;;;;;6.45;74.81;98878.94;4914705;29;20047;-48
2022/02/21 10:15:28;;;;;;;5.90;1.00;;;;;;;6.46;74.90;98901.22;4901667;29;20960;-48
2022/02/21 10:18:15;;;;;;;;;;;;;;;6.46;74.15;98906.38;4905273;29;20055;-52
2022/02/21 10:21:00;;;;;;;5.68;1.92;;;;;;;6.52;75.41;98903.78;4903483;29;19923;-46
2022/02/21 10:23:33;;;;;;;7.25;2.22;;;;;;;6.60;75.00;98909.75;4905989;29;20052;-47
2022/02/21 10:26:04;;;;;;;6.30;1.85;;;;;;;6.66;72.70;98909.69;4905854;29;20064;-50
2022/02/21 10:28:36;;;;;;;4.43;1.80;;;;;;;6.69;73.59;98929.44;4908566;29;20558;-50
2022/02/21 10:31:20;;;;;;;7.07;1.23;;;;;;;6.71;74.77;98932.84;4905038;29;20047;-52
2022/02/21 10:34:02;;;;;;;7.05;0.93;;;;;;;6.75;74.48;98938.84;4905892;29;20500;-49
2022/02/21 10:36:33;;;;;;;9.40;1.20;;;;;;;6.74;74.26;98937.09;4906441;29;20060;-48
2022/02/21 10:39:03;;;;;;;9.43;1.40;;;;;;;6.77;73.62;98952.53;4906816;29;20108;-47
2022/02/21 10:41:49;;;;;;;6.53;1.00;;;;;;;6.80;74.87;98967.97;4906317;29;20044;-50
2022/02/21 10:44:23;;;;;;;9.45;1.60;;;;;;;6.86;72.72;98965.34;4908749;29;20058;-47
2022/02/21 10:47:09;;;;;;;4.55;2.03;;;;;;;6.92;73.72;98973.06;4906470;29;20138;-49
2022/02/21 10:49:50;;;;;;;5.55;0.98;;;;;;;7.01;72.24;98992.75;4911747;29;20080;-46
2022/02/21 10:52:20;;;;;;;7.10;1.50;;;;;;;7.10;71.83;98996.13;4910833;29;20044;-46
2022/02/21 10:54:48;;;;;;;6.20;0.80;;;;;;;7.25;71.95;98990.03;4886748;29;20131;-50
2022/02/21 10:57:18;;;;;;;2.35;1.70;;;;;;;7.50;70.95;99000.19;4905790;29;20051;-45
2022/02/21 10:59:45;;;;;;;10.10;2.85;;;;;;;7.58;70.77;99008.72;4910094;29;20102;-46
2022/02/21 11:02:15;;;;;;;7.93;0.95;;;;;;;7.62;70.00;99009.53;4906195;29;20056;-45
2022/02/21 11:04:43;;;;;;;9.38;1.48;;;;;;;7.77;69.44;99055.81;4909079;29;20096;-51
2022/02/21 11:07:12;;;;;;;11.00;2.53;;;;;;;7.89;69.85;99057.47;4908117;29;20044;-47
2022/02/21 11:09:40;;;;;;;8.95;1.27;;;;;;;8.05;69.22;99049.59;4906794;29;20717;-51
2022/02/21 11:12:07;;;;;;;6.68;1.00;;;;;;;8.17;69.26;99072.69;4909278;29;20060;-49
2022/02/21 11:14:35;;;;;;;8.68;2.33;;;;;;;8.30;68.39;99072.59;4908041;29;20509;-52
2022/02/21 11:17:04;;;;;;;9.57;1.60;;;;;;;8.38;67.39;99068.25;4911619;29;20116;-47
2022/02/21 11:19:31;;;;;;;5.47;0.80;;;;;;;8.51;66.64;99088.75;4908698;29;20685;-52
2022/02/21 11:21:58;;;;;;;3.05;0.47;;;;;;;8.61;66.48;99099.00;4909819;29;20121;-51
2022/02/21 11:24:29;;;;;;;5.78;2.92;;;;;;;8.70;66.59;99110.97;4907447;29;20055;-45
2022/02/21 11:27:21;;;;;;;7.00;0.90;;;;;;;8.71;65.06;99086.84;4908383;29;20099;-50
2022/02/21 11:30:10;;;;;;;6.78;0.82;;;;;;;8.76;65.69;99098.84;4908143;29;20044;-54
2022/02/21 11:32:41;;;;;;;6.90;0.75;;;;;;;8.87;65.12;99091.84;4906983;29;20119;-50
2022/02/21 11:35:24;;;;;;;9.45;0.82;;;;;;;8.90;64.04;99117.66;4910783;29;20064;-51
2022/02/21 11:37:50;;;;;;;4.38;0.60;;;;;;;8.96;63.87;99133.09;4910179;29;20112;-52
2022/02/21 11:40:17;;;;;;;3.55;0.95;;;;;;;9.00;64.08;99127.00;4910959;29;20044;-52
2022/02/21 11:42:48;;;;;;;10.10;1.20;;;;;;;9.03;63.88;99145.91;4908347;29;20064;-48
2022/02/21 11:45:27;;;;;;;11.20;2.63;;;;;;;9.05;63.56;99141.59;4913681;29;20143;-45